createdAt,value
2023-02-06T00:00:16.262Z,4.55
2023-02-06T00:02:43.041Z,3.97
2023-02-06T00:05:09.503Z,3.65
2023-02-06T00:07:35.890Z,3.92
2023-02-06T00:10:02.553Z,4.57
2023-02-06T00:12:28.878Z,2.88
2023-02-06T00:14:55.257Z,4.07
2023-02-06T00:17:21.569Z,4.00
2023-02-06T00:19:47.938Z,5.00
2023-02-06T00:22:14.335Z,4.47
2023-02-06T00:24:40.870Z,3.95
2023-02-06T00:27:07.585Z,3.40
2023-02-06T00:29:34.053Z,3.72
2023-02-06T00:32:00.373Z,3.40
2023-02-06T00:34:26.729Z,3.47
2023-02-06T00:36:53.079Z,3.70
2023-02-06T00:39:19.548Z,5.65
2023-02-06T00:41:45.900Z,3.65
2023-02-06T00:44:12.245Z,3.90
2023-02-06T00:46:38.752Z,3.28
2023-02-06T00:49:05.308Z,4.35
2023-02-06T00:51:31.714Z,2.55
2023-02-06T00:53:58.019Z,3.38
2023-02-06T00:56:24.407Z,3.50
2023-02-06T00:58:50.748Z,4.00
2023-02-06T01:01:17.536Z,3.53
2023-02-06T01:03:43.894Z,4.10
2023-02-06T01:06:10.293Z,4.25
2023-02-06T01:08:36.819Z,3.42
2023-02-06T01:11:09.033Z,3.28
2023-02-06T01:13:35.331Z,3.00
2023-02-06T01:16:01.746Z,3.78
2023-02-06T01:18:28.098Z,3.72
2023-02-06T01:20:54.525Z,4.30
2023-02-06T01:23:20.866Z,4.90
2023-02-06T01:25:47.215Z,5.38
2023-02-06T01:28:13.602Z,6.07
2023-02-06T01:30:40.197Z,4.70
2023-02-06T01:33:06.576Z,4.28
2023-02-06T01:35:33.073Z,4.20
2023-02-06T01:37:59.465Z,4.25
2023-02-06T01:40:25.813Z,3.08
2023-02-06T01:42:52.138Z,3.58
2023-02-06T01:45:21.255Z,4.05
2023-02-06T01:47:48.721Z,3.42
2023-02-06T01:50:15.277Z,3.25
2023-02-06T01:52:41.731Z,3.90
2023-02-06T01:55:08.298Z,3.88
2023-02-06T01:57:34.877Z,4.22
2023-02-06T02:00:02.771Z,4.13
2023-02-06T02:02:29.475Z,3.58
2023-02-06T02:04:56.862Z,3.25
2023-02-06T02:07:26.089Z,4.63
2023-02-06T02:09:52.920Z,3.40
2023-02-06T02:12:20.005Z,3.53
2023-02-06T02:14:47.989Z,3.33
2023-02-06T02:17:20.310Z,3.53
2023-02-06T02:20:01.702Z,3.75
2023-02-06T02:22:33.925Z,2.75
2023-02-06T02:25:18.028Z,3.10
2023-02-06T02:27:47.115Z,3.70
2023-02-06T02:30:16.216Z,3.55
2023-02-06T02:33:07.595Z,3.33
2023-02-06T02:35:42.006Z,4.07
2023-02-06T02:38:27.365Z,3.40
2023-02-06T02:41:13.952Z,3.67
2023-02-06T02:43:43.633Z,3.20
2023-02-06T02:46:17.882Z,4.05
2023-02-06T02:48:46.427Z,3.22
2023-02-06T02:51:13.345Z,3.78
2023-02-06T02:53:39.703Z,3.05
2023-02-06T02:56:16.347Z,3.13
2023-02-06T02:58:44.390Z,3.50
2023-02-06T03:01:12.335Z,3.65
2023-02-06T03:03:40.230Z,3.15
2023-02-06T03:06:09.485Z,3.30
2023-02-06T03:08:54.555Z,2.55
2023-02-06T03:11:21.034Z,3.08
2023-02-06T03:14:03.911Z,3.85
2023-02-06T03:16:36.173Z,3.88
2023-02-06T03:19:05.525Z,3.50
2023-02-06T03:21:32.266Z,3.28
2023-02-06T03:24:01.385Z,3.45
2023-02-06T03:26:28.829Z,2.65
2023-02-06T03:29:02.301Z,3.70
2023-02-06T03:31:32.248Z,3.22
2023-02-06T03:34:03.879Z,2.90
2023-02-06T03:36:30.378Z,3.90
2023-02-06T03:38:56.828Z,2.92
2023-02-06T03:41:25.909Z,2.70
2023-02-06T03:43:52.718Z,3.70
2023-02-06T03:46:19.828Z,2.70
2023-02-06T03:48:48.936Z,2.78
2023-02-06T03:51:20.262Z,2.92
2023-02-06T03:53:48.757Z,2.78
2023-02-06T03:56:34.042Z,3.58
2023-02-06T03:59:00.531Z,3.47
2023-02-06T04:01:27.417Z,2.70
2023-02-06T04:03:53.823Z,3.50
2023-02-06T04:06:20.480Z,2.58
2023-02-06T04:08:46.806Z,2.95
2023-02-06T04:11:13.104Z,3.40
2023-02-06T04:13:39.436Z,3.00
2023-02-06T04:16:05.955Z,3.05
2023-02-06T04:18:32.369Z,2.25
2023-02-06T04:21:05.740Z,3.20
2023-02-06T04:23:32.439Z,3.15
2023-02-06T04:25:58.922Z,2.92
2023-02-06T04:28:25.247Z,2.80
2023-02-06T04:30:51.700Z,3.20
2023-02-06T04:33:18.330Z,2.60
2023-02-06T04:35:44.646Z,2.15
2023-02-06T04:38:10.972Z,2.90
2023-02-06T04:40:37.439Z,3.15
2023-02-06T04:43:03.789Z,2.92
2023-02-06T04:45:30.136Z,2.22
2023-02-06T04:47:59.113Z,2.42
2023-02-06T04:50:28.282Z,2.83
2023-02-06T04:52:54.615Z,2.28
2023-02-06T04:55:22.504Z,2.42
2023-02-06T04:57:48.946Z,2.42
2023-02-06T05:00:15.577Z,2.40
2023-02-06T05:02:42.008Z,3.13
2023-02-06T05:05:09.186Z,3.30
2023-02-06T05:07:35.797Z,2.25
2023-02-06T05:10:02.352Z,2.70
2023-02-06T05:12:32.930Z,2.85
2023-02-06T05:14:59.349Z,3.67
2023-02-06T05:17:25.736Z,2.83
2023-02-06T05:19:52.176Z,1.63
2023-02-06T05:22:18.572Z,2.70
2023-02-06T05:24:44.960Z,2.63
2023-02-06T05:27:11.344Z,3.10
2023-02-06T05:29:37.743Z,2.95
2023-02-06T05:32:04.189Z,2.38
2023-02-06T05:34:30.520Z,2.47
2023-02-06T05:36:56.809Z,2.97
2023-02-06T05:39:23.547Z,2.83
2023-02-06T05:41:49.927Z,3.58
2023-02-06T05:44:16.393Z,2.90
2023-02-06T05:46:42.866Z,2.85
2023-02-06T05:49:09.193Z,3.47
2023-02-06T05:51:35.561Z,2.83
2023-02-06T05:54:02.014Z,2.42
2023-02-06T05:56:28.338Z,2.80
2023-02-06T05:58:54.630Z,3.55
2023-02-06T06:01:21.037Z,2.10
2023-02-06T06:03:47.470Z,2.67
2023-02-06T06:06:13.881Z,2.45
2023-02-06T06:08:40.325Z,3.28
2023-02-06T06:11:07.515Z,2.65
2023-02-06T06:13:34.217Z,2.50
2023-02-06T06:16:00.709Z,2.22
2023-02-06T06:18:27.086Z,2.80
2023-02-06T06:20:53.552Z,2.58
2023-02-06T06:23:19.937Z,4.25
2023-02-06T06:25:47.127Z,3.50
2023-02-06T06:28:13.483Z,2.67
2023-02-06T06:30:39.999Z,3.90
2023-02-06T06:33:06.391Z,4.88
2023-02-06T06:35:32.854Z,2.70
2023-02-06T06:37:59.286Z,2.97
2023-02-06T06:40:25.721Z,3.80
2023-02-06T06:42:52.142Z,2.97
2023-02-06T06:45:18.635Z,2.50
2023-02-06T06:47:45.054Z,3.95
2023-02-06T06:50:11.512Z,3.10
2023-02-06T06:52:37.966Z,2.30
2023-02-06T06:55:04.464Z,2.70
2023-02-06T06:57:32.291Z,2.72
2023-02-06T06:59:58.765Z,3.70
2023-02-06T07:02:25.283Z,3.90
2023-02-06T07:04:51.608Z,4.63
2023-02-06T07:07:18.115Z,3.85
2023-02-06T07:09:44.601Z,2.53
2023-02-06T07:12:11.047Z,2.95
2023-02-06T07:14:37.399Z,2.20
2023-02-06T07:17:03.841Z,2.30
2023-02-06T07:19:30.242Z,2.72
2023-02-06T07:21:56.734Z,2.53
2023-02-06T07:24:23.062Z,2.80
2023-02-06T07:26:49.360Z,2.75
2023-02-06T07:29:15.881Z,2.22
2023-02-06T07:31:42.523Z,2.60
2023-02-06T07:34:08.946Z,2.58
2023-02-06T07:36:35.615Z,2.53
2023-02-06T07:39:02.876Z,2.50
2023-02-06T07:41:29.313Z,2.70
2023-02-06T07:43:55.748Z,3.35
2023-02-06T07:46:22.212Z,2.33
2023-02-06T07:48:48.691Z,3.60
2023-02-06T07:51:15.107Z,2.35
2023-02-06T07:53:41.595Z,3.60
2023-02-06T07:56:15.687Z,2.83
2023-02-06T07:58:42.533Z,3.45
2023-02-06T08:01:09.269Z,3.10
2023-02-06T08:03:35.965Z,2.72
2023-02-06T08:06:07.446Z,3.25
2023-02-06T08:08:33.737Z,3.00
2023-02-06T08:11:00.109Z,3.28
2023-02-06T08:13:26.422Z,2.78
2023-02-06T08:15:52.776Z,2.85
2023-02-06T08:18:19.091Z,3.20
2023-02-06T08:20:45.446Z,3.05
2023-02-06T08:23:11.755Z,3.22
2023-02-06T08:25:38.401Z,2.80
2023-02-06T08:28:05.139Z,2.80
2023-02-06T08:30:32.394Z,2.55
2023-02-06T08:32:58.871Z,3.67
2023-02-06T08:35:25.219Z,2.92
2023-02-06T08:37:51.518Z,3.92
2023-02-06T08:40:18.085Z,3.13
2023-02-06T08:42:44.407Z,3.38
2023-02-06T08:45:10.700Z,3.95
2023-02-06T08:47:37.110Z,3.22
2023-02-06T08:50:03.963Z,3.80
2023-02-06T08:52:30.407Z,3.22
2023-02-06T08:54:56.800Z,3.63
2023-02-06T08:57:23.227Z,3.22
2023-02-06T08:59:49.962Z,3.13
2023-02-06T09:02:16.473Z,3.03
2023-02-06T09:04:43.372Z,3.63
2023-02-06T09:07:09.827Z,2.95
2023-02-06T09:09:36.225Z,3.08
2023-02-06T09:12:03.985Z,3.60
2023-02-06T09:14:30.743Z,3.30
2023-02-06T09:16:58.081Z,4.55
2023-02-06T09:19:24.704Z,3.50
2023-02-06T09:21:51.199Z,3.78
2023-02-06T09:24:18.006Z,3.88
2023-02-06T09:26:58.630Z,3.30
2023-02-06T09:29:28.695Z,3.63
2023-02-06T09:31:57.088Z,2.80
2023-02-06T09:34:24.375Z,3.47
2023-02-06T09:36:50.718Z,3.85
2023-02-06T09:39:17.100Z,3.67
2023-02-06T09:41:45.394Z,3.38
2023-02-06T09:44:14.984Z,3.90
2023-02-06T09:46:45.331Z,2.40
2023-02-06T09:49:18.347Z,3.00
2023-02-06T09:51:53.904Z,2.92
2023-02-06T09:54:35.700Z,2.78
2023-02-06T09:57:06.756Z,4.80
2023-02-06T09:59:39.126Z,2.75
2023-02-06T10:02:41.002Z,2.65
2023-02-06T10:05:20.593Z,2.72
2023-02-06T10:07:47.007Z,3.10
2023-02-06T10:10:16.076Z,2.50
2023-02-06T10:12:47.232Z,3.00
2023-02-06T10:15:16.512Z,2.40
2023-02-06T10:17:52.226Z,2.53
2023-02-06T10:20:21.897Z,2.03
2023-02-06T10:22:53.936Z,2.47
2023-02-06T10:25:34.732Z,2.47
2023-02-06T10:28:20.485Z,3.38
2023-02-06T10:30:49.732Z,2.90
2023-02-06T10:33:25.678Z,2.92
2023-02-06T10:35:58.860Z,2.42
2023-02-06T10:38:25.258Z,2.30
2023-02-06T10:40:54.488Z,2.78
2023-02-06T10:43:25.259Z,2.20
2023-02-06T10:45:54.562Z,2.20
2023-02-06T10:48:31.665Z,2.65
2023-02-06T10:51:01.014Z,2.35
2023-02-06T10:53:33.484Z,2.00
2023-02-06T10:56:02.563Z,2.80
2023-02-06T10:58:31.063Z,2.63
2023-02-06T11:00:59.321Z,2.28
2023-02-06T11:03:28.258Z,2.42
2023-02-06T11:05:55.470Z,2.08
2023-02-06T11:08:23.874Z,2.40
2023-02-06T11:10:50.318Z,2.15
2023-02-06T11:13:30.589Z,2.45
2023-02-06T11:16:16.676Z,3.03
2023-02-06T11:18:45.019Z,2.50
2023-02-06T11:21:12.876Z,2.55
2023-02-06T11:23:39.596Z,2.75
2023-02-06T11:26:06.173Z,2.58
2023-02-06T11:28:37.183Z,3.33
2023-02-06T11:31:05.032Z,4.18
2023-02-06T11:33:50.303Z,2.30
2023-02-06T11:36:31.563Z,2.67
2023-02-06T11:38:59.772Z,2.80
2023-02-06T11:41:26.584Z,3.13
2023-02-06T11:44:01.532Z,3.25
2023-02-06T11:46:32.521Z,3.03
2023-02-06T11:49:29.087Z,2.42
2023-02-06T11:52:03.719Z,2.55
2023-02-06T11:54:31.529Z,2.53
2023-02-06T11:56:59.321Z,2.95
2023-02-06T11:59:27.387Z,2.30
2023-02-06T12:01:54.154Z,1.80
2023-02-06T12:04:25.582Z,2.10
2023-02-06T12:07:15.164Z,2.30
2023-02-06T12:09:41.676Z,1.73
2023-02-06T12:12:10.837Z,1.95
2023-02-06T12:14:39.656Z,2.45
2023-02-06T12:17:14.036Z,2.15
2023-02-06T12:19:53.969Z,2.40
2023-02-06T12:22:24.427Z,2.88
2023-02-06T12:24:55.246Z,2.72
2023-02-06T12:27:29.934Z,2.22
2023-02-06T12:29:58.680Z,1.63
2023-02-06T12:32:29.422Z,2.38
2023-02-06T12:35:00.387Z,2.20
2023-02-06T12:37:39.791Z,2.15
2023-02-06T12:40:18.358Z,1.65
2023-02-06T12:42:49.491Z,1.83
2023-02-06T12:45:24.748Z,2.10
2023-02-06T12:48:04.774Z,1.80
2023-02-06T12:50:38.778Z,1.67
2023-02-06T12:53:15.210Z,2.28
2023-02-06T12:55:48.453Z,2.47
2023-02-06T12:58:25.959Z,1.83
2023-02-06T13:00:52.320Z,2.03
2023-02-06T13:03:18.696Z,2.00
2023-02-06T13:05:47.263Z,2.97
2023-02-06T13:08:16.533Z,2.65
2023-02-06T13:10:43.382Z,1.80
2023-02-06T13:13:42.154Z,1.95
2023-02-06T13:16:09.168Z,2.03
2023-02-06T13:18:37.017Z,2.80
2023-02-06T13:21:22.316Z,2.25
2023-02-06T13:23:50.290Z,2.70
2023-02-06T13:26:16.641Z,2.10
2023-02-06T13:28:45.771Z,1.92
2023-02-06T13:31:23.294Z,2.40
2023-02-06T13:34:12.821Z,2.10
2023-02-06T13:36:43.774Z,2.42
2023-02-06T13:39:30.080Z,2.85
2023-02-06T13:46:55.062Z,1.77
2023-02-06T13:49:24.216Z,1.77
2023-02-06T13:52:09.109Z,1.80
2023-02-06T13:54:49.240Z,2.30
2023-02-06T13:57:27.661Z,2.60
2023-02-06T13:59:57.935Z,1.95
2023-02-06T14:02:31.087Z,3.03
2023-02-06T14:04:58.401Z,1.83
2023-02-06T14:07:34.002Z,2.25
2023-02-06T14:10:18.930Z,2.38
2023-02-06T14:12:56.543Z,2.20
2023-02-06T14:15:25.701Z,3.08
2023-02-06T14:18:00.421Z,2.13
2023-02-06T14:20:42.041Z,2.25
2023-02-06T14:23:17.273Z,2.72
2023-02-06T14:26:02.185Z,2.40
2023-02-06T14:28:28.520Z,2.28
2023-02-06T14:31:01.106Z,2.17
2023-02-06T14:33:46.533Z,3.03
2023-02-06T14:36:48.131Z,2.83
2023-02-06T14:39:32.731Z,2.60
2023-02-06T14:41:59.269Z,3.15
2023-02-06T14:44:29.334Z,2.67
2023-02-06T14:46:56.046Z,2.35
2023-02-06T14:49:31.992Z,2.95
2023-02-06T14:51:58.852Z,3.10
2023-02-06T14:54:27.531Z,2.67
2023-02-06T14:56:57.665Z,3.55
2023-02-06T14:59:24.046Z,2.42
2023-02-06T15:01:52.294Z,2.08
2023-02-06T15:04:21.913Z,3.65
2023-02-06T15:06:52.868Z,3.40
2023-02-06T15:09:29.852Z,3.30
2023-02-06T15:11:58.372Z,2.72
2023-02-06T15:14:29.423Z,2.50
2023-02-06T15:17:00.144Z,2.75
2023-02-06T15:19:27.945Z,3.25
2023-02-06T15:22:10.887Z,2.83
2023-02-06T15:24:56.143Z,2.42
2023-02-06T15:27:22.477Z,3.17
2023-02-06T15:29:49.892Z,3.45
2023-02-06T15:32:23.463Z,3.00
2023-02-06T15:34:49.831Z,3.00
2023-02-06T15:37:20.261Z,3.13
2023-02-06T15:39:46.822Z,3.17
2023-02-06T15:42:13.422Z,3.72
2023-02-06T15:44:40.007Z,2.88
2023-02-06T15:47:10.676Z,2.72
2023-02-06T15:49:40.986Z,3.55
2023-02-06T15:52:07.448Z,2.90
2023-02-06T15:54:34.309Z,2.65
2023-02-06T15:57:05.619Z,2.53
2023-02-06T15:59:34.021Z,2.45
2023-02-06T16:02:00.875Z,3.95
2023-02-06T16:04:29.250Z,2.10
2023-02-06T16:07:07.723Z,2.10
2023-02-06T16:09:54.202Z,2.75
2023-02-06T16:12:21.375Z,2.50
2023-02-06T16:14:54.027Z,2.05
2023-02-06T16:17:23.538Z,1.73
2023-02-06T16:19:54.317Z,2.10
2023-02-06T16:22:23.618Z,2.17
2023-02-06T16:24:51.599Z,2.10
2023-02-06T16:27:19.594Z,2.67
2023-02-06T16:29:47.895Z,2.00
2023-02-06T16:32:16.204Z,2.10
2023-02-06T16:34:43.650Z,2.20
2023-02-06T16:37:24.440Z,1.75
2023-02-06T16:39:50.944Z,2.00
2023-02-06T16:42:20.025Z,2.45
2023-02-06T16:44:49.681Z,2.20
2023-02-06T16:47:18.405Z,2.13
2023-02-06T16:49:48.025Z,2.22
2023-02-06T16:52:17.588Z,1.73
2023-02-06T16:54:44.601Z,2.50
2023-02-06T16:57:18.997Z,2.05
2023-02-06T16:59:45.356Z,1.80
2023-02-06T17:02:12.440Z,2.28
2023-02-06T17:04:38.998Z,2.40
2023-02-06T17:07:05.990Z,2.42
2023-02-06T17:09:32.383Z,2.42
2023-02-06T17:11:58.763Z,2.58
2023-02-06T17:14:25.070Z,2.22
2023-02-06T17:16:51.409Z,2.30
2023-02-06T17:19:17.844Z,2.13
2023-02-06T17:21:44.292Z,1.20
2023-02-06T17:24:10.642Z,2.17
2023-02-06T17:26:37.031Z,1.77
2023-02-06T17:29:03.405Z,3.15
2023-02-06T17:31:29.951Z,2.35
2023-02-06T17:33:56.478Z,2.70
2023-02-06T17:36:29.304Z,2.53
2023-02-06T17:38:59.345Z,2.42
2023-02-06T17:41:30.630Z,2.10
2023-02-06T17:43:57.068Z,2.03
2023-02-06T17:46:23.564Z,2.20
2023-02-06T17:48:49.900Z,2.38
2023-02-06T17:51:16.266Z,2.55
2023-02-06T17:53:42.619Z,2.67
2023-02-06T17:56:12.672Z,2.67
2023-02-06T17:58:42.924Z,0.95
2023-02-06T18:01:12.863Z,1.08
2023-02-06T18:03:39.286Z,2.60
2023-02-06T18:06:05.767Z,2.92
2023-02-06T18:08:32.142Z,2.25
2023-02-06T18:10:58.589Z,2.58
2023-02-06T18:13:25.390Z,2.53
2023-02-06T18:15:56.294Z,4.25
2023-02-06T18:18:24.241Z,3.25
2023-02-06T18:20:50.614Z,2.45
2023-02-06T18:23:19.176Z,2.45
2023-02-06T18:25:45.785Z,3.67
2023-02-06T18:28:14.592Z,2.95
2023-02-06T18:30:41.843Z,3.50
2023-02-06T18:33:08.895Z,3.33
2023-02-06T18:35:44.292Z,2.97
2023-02-06T18:38:11.338Z,3.17
2023-02-06T18:40:38.109Z,3.00
2023-02-06T18:43:05.347Z,2.67
2023-02-06T18:45:34.426Z,3.10
2023-02-06T18:48:01.877Z,3.53
2023-02-06T18:50:28.351Z,2.75
2023-02-06T18:52:54.925Z,3.15
2023-02-06T18:55:21.586Z,3.38
2023-02-06T18:57:48.167Z,3.60
2023-02-06T19:00:15.613Z,4.03
2023-02-06T19:02:42.182Z,3.60
2023-02-06T19:05:09.075Z,4.18
2023-02-06T19:07:35.685Z,3.05
2023-02-06T19:10:03.462Z,3.20
2023-02-06T19:12:30.192Z,3.60
2023-02-06T19:14:57.101Z,3.30
2023-02-06T19:17:24.532Z,3.63
2023-02-06T19:19:50.934Z,3.90
2023-02-06T19:22:17.475Z,3.17
2023-02-06T19:24:44.513Z,4.20
2023-02-06T19:27:11.291Z,3.65
2023-02-06T19:29:38.145Z,3.20
2023-02-06T19:32:05.449Z,3.70
2023-02-06T19:34:35.905Z,4.43
2023-02-06T19:37:03.385Z,3.22
2023-02-06T19:39:34.230Z,3.40
2023-02-06T19:42:01.309Z,3.80
2023-02-06T19:44:28.733Z,4.00
2023-02-06T19:46:55.522Z,3.95
2023-02-06T19:49:21.875Z,3.72
2023-02-06T19:51:48.886Z,4.07
2023-02-06T19:54:15.407Z,3.80
2023-02-06T19:56:43.187Z,3.67
2023-02-06T19:59:17.949Z,3.78
2023-02-06T20:01:45.554Z,3.35
2023-02-06T20:04:12.357Z,3.00
2023-02-06T20:06:38.793Z,3.90
2023-02-06T20:09:05.414Z,3.38
2023-02-06T20:11:32.912Z,4.30
2023-02-06T20:13:59.533Z,3.60
2023-02-06T20:16:27.027Z,4.30
2023-02-06T20:18:53.932Z,3.90
2023-02-06T20:21:21.680Z,4.93
2023-02-06T20:23:49.834Z,5.05
2023-02-06T20:26:17.553Z,4.22
2023-02-06T20:28:43.979Z,4.72
2023-02-06T20:31:10.897Z,3.65
2023-02-06T20:33:40.097Z,4.28
2023-02-06T20:36:10.007Z,4.35
2023-02-06T20:38:36.334Z,3.83
2023-02-06T20:41:03.515Z,4.80
2023-02-06T20:43:29.964Z,4.57
2023-02-06T20:45:56.553Z,3.90
2023-02-06T20:48:23.542Z,4.07
2023-02-06T20:50:55.917Z,4.95
2023-02-06T20:53:22.275Z,5.38
2023-02-06T20:55:48.686Z,5.05
2023-02-06T20:58:15.157Z,1.90
2023-02-06T21:00:41.697Z,3.20
2023-02-06T21:03:08.054Z,5.68
2023-02-06T21:05:34.567Z,4.38
2023-02-06T21:08:00.994Z,5.43
2023-02-06T21:10:28.336Z,4.57
2023-02-06T21:12:54.663Z,5.75
2023-02-06T21:15:21.026Z,4.10
2023-02-06T21:17:47.393Z,4.50
2023-02-06T21:20:13.847Z,4.28
2023-02-06T21:22:40.190Z,4.28
2023-02-06T21:25:06.698Z,3.97
2023-02-06T21:27:33.038Z,4.13
2023-02-06T21:29:59.473Z,4.22
2023-02-06T21:32:26.082Z,5.25
2023-02-06T21:34:52.529Z,4.30
2023-02-06T21:37:18.903Z,5.15
2023-02-06T21:39:45.317Z,3.80
2023-02-06T21:42:11.736Z,3.92
2023-02-06T21:44:38.477Z,5.03
2023-02-06T21:47:04.887Z,4.80
2023-02-06T21:49:31.308Z,4.50
2023-02-06T21:51:58.356Z,4.88
2023-02-06T21:54:26.134Z,4.63
2023-02-06T21:56:52.641Z,4.38
2023-02-06T21:59:18.981Z,4.28
2023-02-06T22:01:45.456Z,4.97
2023-02-06T22:04:12.292Z,4.63
2023-02-06T22:06:38.843Z,4.20
2023-02-06T22:09:07.683Z,4.55
2023-02-06T22:11:35.802Z,3.95
2023-02-06T22:14:03.541Z,4.78
2023-02-06T22:16:30.142Z,5.18
2023-02-06T22:18:57.089Z,4.93
2023-02-06T22:21:25.047Z,4.65
2023-02-06T22:23:52.372Z,4.95
2023-02-06T22:26:20.373Z,4.78
2023-02-06T22:28:46.886Z,4.47
2023-02-06T22:31:16.581Z,4.55
2023-02-06T22:33:43.034Z,4.68
2023-02-06T22:36:13.661Z,4.97
2023-02-06T22:38:40.498Z,4.93
2023-02-06T22:41:08.794Z,4.28
2023-02-06T22:43:36.033Z,5.25
2023-02-06T22:46:02.797Z,5.40
2023-02-06T22:48:29.850Z,4.57
2023-02-06T22:50:56.260Z,5.03
2023-02-06T22:53:29.424Z,5.22
2023-02-06T22:56:18.346Z,4.60
2023-02-06T22:58:45.097Z,4.30
2023-02-06T23:01:11.721Z,4.43
2023-02-06T23:03:38.335Z,4.07
2023-02-06T23:06:05.993Z,4.15
2023-02-06T23:08:32.816Z,5.03
2023-02-06T23:10:59.203Z,4.72
2023-02-06T23:13:25.687Z,4.20
2023-02-06T23:15:52.205Z,3.70
2023-02-06T23:18:18.592Z,3.63
2023-02-06T23:20:45.055Z,3.90
2023-02-06T23:23:11.428Z,3.88
2023-02-06T23:25:42.828Z,3.17
2023-02-06T23:28:09.329Z,4.05
2023-02-06T23:30:35.793Z,3.78
2023-02-06T23:33:02.215Z,3.85
2023-02-06T23:35:28.586Z,4.50
2023-02-06T23:37:54.938Z,3.05
2023-02-06T23:40:21.329Z,4.00
2023-02-06T23:42:47.738Z,3.83
2023-02-06T23:45:14.190Z,3.58
2023-02-06T23:47:40.634Z,4.95
2023-02-06T23:50:07.363Z,4.63
2023-02-06T23:52:33.681Z,3.78
2023-02-06T23:55:00.135Z,4.38
2023-02-06T23:57:26.542Z,4.72
2023-02-06T23:59:52.893Z,4.75
